sensor_id;sensor_type;location;lat;lon;timestamp;pressure;altitude;pressure_sealevel;temperature;humidity
47530;BME280;33272;51.922;7.730;2023-05-19T00:00:19;144307.91;;;7.29;100.00
47530;BME280;33272;51.922;7.730;2023-05-19T00:02:46;144300.34;;;7.26;100.00
47530;BME280;33272;51.922;7.730;2023-05-19T00:05:16;144288.94;;;7.21;100.00
47530;BME280;33272;51.922;7.730;2023-05-19T00:07:43;144277.59;;;7.16;100.00
47530;BME280;33272;51.922;7.730;2023-05-19T00:10:13;144267.44;;;7.12;100.00
47530;BME280;33272;51.922;7.730;2023-05-19T00:12:41;144254.84;;;7.07;100.00
47530;BME280;33272;51.922;7.730;2023-05-19T00:15:10;144256.09;;;7.08;100.00
47530;BME280;33272;51.922;7.730;2023-05-19T00:17:37;144247.25;;;7.04;100.00
47530;BME280;33272;51.922;7.730;2023-05-19T00:20:08;144243.44;;;7.03;100.00
47530;BME280;33272;51.922;7.730;2023-05-19T00:22:38;144242.19;;;7.02;100.00
47530;BME280;33272;51.922;7.730;2023-05-19T00:25:06;144244.75;;;7.03;100.00
47530;BME280;33272;51.922;7.730;2023-05-19T00:27:33;144248.50;;;7.05;100.00
47530;BME280;33272;51.922;7.730;2023-05-19T00:30:00;144251.00;;;7.06;100.00
47530;BME280;33272;51.922;7.730;2023-05-19T00:32:27;144246.00;;;7.04;100.00
47530;BME280;33272;51.922;7.730;2023-05-19T00:34:54;144246.00;;;7.04;100.00
47530;BME280;33272;51.922;7.730;2023-05-19T00:37:21;144247.25;;;7.04;100.00
47530;BME280;33272;51.922;7.730;2023-05-19T00:39:50;144234.59;;;6.99;100.00
47530;BME280;33272;51.922;7.730;2023-05-19T00:42:18;144225.75;;;6.95;100.00
47530;BME280;33272;51.922;7.730;2023-05-19T00:44:45;144214.41;;;6.91;100.00
47530;BME280;33272;51.922;7.730;2023-05-19T00:47:12;144204.28;;;6.87;100.00
47530;BME280;33272;51.922;7.730;2023-05-19T00:49:39;144192.91;;;6.82;100.00
47530;BME280;33272;51.922;7.730;2023-05-19T00:52:06;144186.59;;;6.80;100.00
47530;BME280;33272;51.922;7.730;2023-05-19T00:54:34;144181.53;;;6.78;100.00
47530;BME280;33272;51.922;7.730;2023-05-19T00:57:03;144172.69;;;6.74;100.00
47530;BME280;33272;51.922;7.730;2023-05-19T00:59:30;144163.84;;;6.70;100.00
47530;BME280;33272;51.922;7.730;2023-05-19T01:01:57;144157.53;;;6.68;100.00
47530;BME280;33272;51.922;7.730;2023-05-19T01:04:24;144152.50;;;6.66;100.00
47530;BME280;33272;51.922;7.730;2023-05-19T01:06:51;144149.94;;;6.65;100.00
47530;BME280;33272;51.922;7.730;2023-05-19T01:09:20;144149.94;;;6.65;100.00
47530;BME280;33272;51.922;7.730;2023-05-19T01:11:48;144141.09;;;6.61;100.00
47530;BME280;33272;51.922;7.730;2023-05-19T01:14:17;144133.53;;;6.58;100.00
47530;BME280;33272;51.922;7.730;2023-05-19T01:16:49;144120.94;;;6.53;100.00
47530;BME280;33272;51.922;7.730;2023-05-19T01:19:41;144109.53;;;6.48;100.00
47530;BME280;33272;51.922;7.730;2023-05-19T01:22:35;144098.19;;;6.44;100.00
47530;BME280;33272;51.922;7.730;2023-05-19T01:25:27;144085.53;;;6.39;100.00
47530;BME280;33272;51.922;7.730;2023-05-19T01:28:37;144069.13;;;6.32;100.00
47530;BME280;33272;51.922;7.730;2023-05-19T01:31:09;144051.47;;;6.25;100.00
47530;BME280;33272;51.922;7.730;2023-05-19T01:33:40;144045.16;;;6.22;100.00
47530;BME280;33272;51.922;7.730;2023-05-19T01:36:08;144038.81;;;6.20;100.00
47530;BME280;33272;51.922;7.730;2023-05-19T01:38:37;144027.47;;;6.15;100.00
47530;BME280;33272;51.922;7.730;2023-05-19T01:41:05;144022.41;;;6.13;100.00
47530;BME280;33272;51.922;7.730;2023-05-19T01:43:34;144009.78;;;6.08;100.00
47530;BME280;33272;51.922;7.730;2023-05-19T01:46:02;144002.19;;;6.05;100.00
47530;BME280;33272;51.922;7.730;2023-05-19T01:48:30;143995.94;;;6.02;100.00
47530;BME280;33272;51.922;7.730;2023-05-19T01:50:59;143987.03;;;5.99;100.00
47530;BME280;33272;51.922;7.730;2023-05-19T01:53:26;143993.38;;;6.01;100.00
47530;BME280;33272;51.922;7.730;2023-05-19T01:55:55;143992.13;;;6.01;100.00
47530;BME280;33272;51.922;7.730;2023-05-19T01:58:32;143998.44;;;6.03;100.00
47530;BME280;33272;51.922;7.730;2023-05-19T02:01:10;143989.59;;;6.00;100.00
47530;BME280;33272;51.922;7.730;2023-05-19T02:03:58;143982.03;;;5.97;100.00
47530;BME280;33272;51.922;7.730;2023-05-19T02:06:35;143982.03;;;5.97;100.00
47530;BME280;33272;51.922;7.730;2023-05-19T02:09:11;143975.69;;;5.94;100.00
47530;BME280;33272;51.922;7.730;2023-05-19T02:11:45;143968.06;;;5.91;100.00
47530;BME280;33272;51.922;7.730;2023-05-19T02:14:19;143959.25;;;5.88;100.00
47530;BME280;33272;51.922;7.730;2023-05-19T02:16:47;143961.75;;;5.89;100.00
47530;BME280;33272;51.922;7.730;2023-05-19T02:19:22;143956.75;;;5.87;100.00
47530;BME280;33272;51.922;7.730;2023-05-19T02:21:49;143955.44;;;5.86;100.00
47530;BME280;33272;51.922;7.730;2023-05-19T02:24:17;143964.31;;;5.90;100.00
47530;BME280;33272;51.922;7.730;2023-05-19T02:26:47;143961.75;;;5.89;100.00
47530;BME280;33272;51.922;7.730;2023-05-19T02:29:14;143963.00;;;5.89;100.00
47530;BME280;33272;51.922;7.730;2023-05-19T02:31:41;143961.75;;;5.89;100.00
47530;BME280;33272;51.922;7.730;2023-05-19T02:34:08;143959.25;;;5.88;100.00
47530;BME280;33272;51.922;7.730;2023-05-19T02:36:40;143954.19;;;5.86;100.00
47530;BME280;33272;51.922;7.730;2023-05-19T02:39:08;143945.34;;;5.82;100.00
47530;BME280;33272;51.922;7.730;2023-05-19T02:41:35;143940.28;;;5.80;100.00
47530;BME280;33272;51.922;7.730;2023-05-19T02:44:02;143932.75;;;5.77;100.00
47530;BME280;33272;51.922;7.730;2023-05-19T02:46:30;143926.44;;;5.74;100.00
47530;BME280;33272;51.922;7.730;2023-05-19T02:48:57;143916.31;;;5.70;100.00
47530;BME280;33272;51.922;7.730;2023-05-19T02:51:24;143908.75;;;5.67;100.00
47530;BME280;33272;51.922;7.730;2023-05-19T02:53:52;143912.53;;;5.69;100.00
47530;BME280;33272;51.922;7.730;2023-05-19T02:56:19;143907.47;;;5.67;100.00
47530;BME280;33272;51.922;7.730;2023-05-19T02:58:46;143899.91;;;5.64;100.00
47530;BME280;33272;51.922;7.730;2023-05-19T03:01:13;143893.59;;;5.61;100.00
47530;BME280;33272;51.922;7.730;2023-05-19T03:03:40;143887.31;;;5.58;100.00
47530;BME280;33272;51.922;7.730;2023-05-19T03:06:07;143883.50;;;5.57;100.00
47530;BME280;33272;51.922;7.730;2023-05-19T03:08:34;143882.25;;;5.56;100.00
47530;BME280;33272;51.922;7.730;2023-05-19T03:11:03;143872.16;;;5.52;100.00
47530;BME280;33272;51.922;7.730;2023-05-19T03:13:30;143864.59;;;5.49;100.00
47530;BME280;33272;51.922;7.730;2023-05-19T03:15:57;143858.28;;;5.47;100.00
47530;BME280;33272;51.922;7.730;2023-05-19T03:18:25;143849.47;;;5.43;100.00
47530;BME280;33272;51.922;7.730;2023-05-19T03:20:52;143846.91;;;5.42;100.00
47530;BME280;33272;51.922;7.730;2023-05-19T03:23:20;143840.63;;;5.40;100.00
47530;BME280;33272;51.922;7.730;2023-05-19T03:25:47;143828.00;;;5.34;100.00
47530;BME280;33272;51.922;7.730;2023-05-19T03:28:15;143826.75;;;5.34;100.00
47530;BME280;33272;51.922;7.730;2023-05-19T03:30:42;143821.69;;;5.32;100.00
47530;BME280;33272;51.922;7.730;2023-05-19T03:33:09;143812.84;;;5.28;100.00
47530;BME280;33272;51.922;7.730;2023-05-19T03:35:36;143801.53;;;5.24;100.00
47530;BME280;33272;51.922;7.730;2023-05-19T03:38:03;143791.41;;;5.20;100.00
47530;BME280;33272;51.922;7.730;2023-05-19T03:40:30;143785.13;;;5.17;100.00
47530;BME280;33272;51.922;7.730;2023-05-19T03:42:57;143777.56;;;5.14;100.00
47530;BME280;33272;51.922;7.730;2023-05-19T03:45:27;143777.56;;;5.14;100.00
47530;BME280;33272;51.922;7.730;2023-05-19T03:47:54;143786.38;;;5.18;100.00
47530;BME280;33272;51.922;7.730;2023-05-19T03:50:21;143787.63;;;5.18;100.00
47530;BME280;33272;51.922;7.730;2023-05-19T03:52:48;143797.72;;;5.22;100.00
47530;BME280;33272;51.922;7.730;2023-05-19T03:55:15;143806.53;;;5.26;100.00
47530;BME280;33272;51.922;7.730;2023-05-19T03:57:44;143815.34;;;5.29;100.00
47530;BME280;33272;51.922;7.730;2023-05-19T04:00:13;143816.66;;;5.30;100.00
47530;BME280;33272;51.922;7.730;2023-05-19T04:02:41;143826.75;;;5.34;100.00
47530;BME280;33272;51.922;7.730;2023-05-19T04:05:09;143855.78;;;5.46;100.00
47530;BME280;33272;51.922;7.730;2023-05-19T04:07:36;143865.84;;;5.50;100.00
47530;BME280;33272;51.922;7.730;2023-05-19T04:10:04;143884.75;;;5.57;100.00
47530;BME280;33272;51.922;7.730;2023-05-19T04:12:32;143902.47;;;5.65;100.00
47530;BME280;33272;51.922;7.730;2023-05-19T04:14:59;143911.28;;;5.68;100.00
47530;BME280;33272;51.922;7.730;2023-05-19T04:17:26;143930.19;;;5.76;100.00
47530;BME280;33272;51.922;7.730;2023-05-19T04:19:54;143946.59;;;5.82;100.00
47530;BME280;33272;51.922;7.730;2023-05-19T04:22:21;143959.25;;;5.88;100.00
47530;BME280;33272;51.922;7.730;2023-05-19T04:24:48;143980.78;;;5.96;100.00
47530;BME280;33272;51.922;7.730;2023-05-19T04:27:17;143993.38;;;6.01;100.00
47530;BME280;33272;51.922;7.730;2023-05-19T04:29:44;144019.91;;;6.12;100.00
47530;BME280;33272;51.922;7.730;2023-05-19T04:32:13;144047.66;;;6.23;100.00
47530;BME280;33272;51.922;7.730;2023-05-19T04:34:42;144083.03;;;6.38;100.00
47530;BME280;33272;51.922;7.730;2023-05-19T04:37:11;144113.34;;;6.50;100.00
47530;BME280;33272;51.922;7.730;2023-05-19T04:39:38;144133.53;;;6.58;100.00
47530;BME280;33272;51.922;7.730;2023-05-19T04:42:07;144161.34;;;6.69;100.00
47530;BME280;33272;51.922;7.730;2023-05-19T04:44:36;144194.19;;;6.83;100.00
47530;BME280;33272;51.922;7.730;2023-05-19T04:47:05;144225.75;;;6.95;100.00
47530;BME280;33272;51.922;7.730;2023-05-19T04:49:33;144271.25;;;7.14;100.00
47530;BME280;33272;51.922;7.730;2023-05-19T04:52:05;144301.59;;;7.26;100.00
47530;BME280;33272;51.922;7.730;2023-05-19T04:54:34;144330.69;;;7.38;100.00
47530;BME280;33272;51.922;7.730;2023-05-19T04:57:01;144369.84;;;7.54;100.00
47530;BME280;33272;51.922;7.730;2023-05-19T04:59:28;144407.75;;;7.69;100.00
47530;BME280;33272;51.922;7.730;2023-05-19T05:01:55;144444.44;;;7.84;100.00
47530;BME280;33272;51.922;7.730;2023-05-19T05:04:23;144484.88;;;8.00;100.00
47530;BME280;33272;51.922;7.730;2023-05-19T05:06:50;144512.72;;;8.11;100.00
47530;BME280;33272;51.922;7.730;2023-05-19T05:09:17;144544.34;;;8.24;100.00
47530;BME280;33272;51.922;7.730;2023-05-19T05:11:46;144582.34;;;8.40;100.00
47530;BME280;33272;51.922;7.730;2023-05-19T05:14:14;144620.31;;;8.55;100.00
47530;BME280;33272;51.922;7.730;2023-05-19T05:16:42;144646.88;;;8.66;100.00
47530;BME280;33272;51.922;7.730;2023-05-19T05:19:10;144684.84;;;8.81;100.00
47530;BME280;33272;51.922;7.730;2023-05-19T05:21:38;144717.72;;;8.94;100.00
47530;BME280;33272;51.922;7.730;2023-05-19T05:24:07;144753.19;;;9.09;100.00
47530;BME280;33272;51.922;7.730;2023-05-19T05:26:35;144786.09;;;9.22;100.00
47530;BME280;33272;51.922;7.730;2023-05-19T05:29:03;144827.84;;;9.39;100.00
47530;BME280;33272;51.922;7.730;2023-05-19T05:31:31;144883.56;;;9.61;100.00
47530;BME280;33272;51.922;7.730;2023-05-19T05:33:58;144968.44;;;9.95;100.00
47530;BME280;33272;51.922;7.730;2023-05-19T05:36:25;145097.75;;;10.48;100.00
47530;BME280;33272;51.922;7.730;2023-05-19T05:38:52;145277.75;;;11.20;100.00
47530;BME280;33272;51.922;7.730;2023-05-19T05:41:19;145465.53;;;11.96;100.00
47530;BME280;33272;51.922;7.730;2023-05-19T05:43:46;145622.91;;;12.59;100.00
47530;BME280;33272;51.922;7.730;2023-05-19T05:46:16;145772.75;;;13.19;100.00
47530;BME280;33272;51.922;7.730;2023-05-19T05:48:43;145913.81;;;13.76;99.48
47530;BME280;33272;51.922;7.730;2023-05-19T05:51:11;146065.06;;;14.37;96.43
47530;BME280;33272;51.922;7.730;2023-05-19T05:53:40;146168.13;;;14.78;94.74
47530;BME280;33272;51.922;7.730;2023-05-19T05:56:11;146255.91;;;15.14;93.67
47530;BME280;33272;51.922;7.730;2023-05-19T05:58:38;146325.91;;;15.42;91.91
47530;BME280;33272;51.922;7.730;2023-05-19T06:01:05;146416.28;;;15.78;89.54
47530;BME280;33272;51.922;7.730;2023-05-19T06:03:39;146502.84;;;16.13;88.86
47530;BME280;33272;51.922;7.730;2023-05-19T06:06:07;146548.69;;;16.31;88.40
47530;BME280;33272;51.922;7.730;2023-05-19T06:08:34;146570.34;;;16.40;86.95
47530;BME280;33272;51.922;7.730;2023-05-19T06:11:01;146572.88;;;16.41;85.58
47530;BME280;33272;51.922;7.730;2023-05-19T06:13:33;146585.63;;;16.46;85.31
47530;BME280;33272;51.922;7.730;2023-05-19T06:16:00;146605.97;;;16.54;83.76
47530;BME280;33272;51.922;7.730;2023-05-19T06:18:27;146669.69;;;16.80;82.88
47530;BME280;33272;51.922;7.730;2023-05-19T06:20:56;146746.16;;;17.10;80.96
47530;BME280;33272;51.922;7.730;2023-05-19T06:23:23;146763.97;;;17.18;79.78
47530;BME280;33272;51.922;7.730;2023-05-19T06:25:51;146780.53;;;17.24;78.52
47530;BME280;33272;51.922;7.730;2023-05-19T06:28:18;146795.84;;;17.30;78.35
47530;BME280;33272;51.922;7.730;2023-05-19T06:30:45;146859.59;;;17.56;77.09
47530;BME280;33272;51.922;7.730;2023-05-19T06:33:12;146914.41;;;17.78;75.42
47530;BME280;33272;51.922;7.730;2023-05-19T06:35:39;146956.50;;;17.95;74.56
47530;BME280;33272;51.922;7.730;2023-05-19T06:38:07;146994.78;;;18.10;73.58
47530;BME280;33272;51.922;7.730;2023-05-19T06:40:35;147007.50;;;18.15;72.86
47530;BME280;33272;51.922;7.730;2023-05-19T06:43:02;147040.69;;;18.28;71.32
47530;BME280;33272;51.922;7.730;2023-05-19T06:45:29;147049.59;;;18.32;69.89
47530;BME280;33272;51.922;7.730;2023-05-19T06:47:56;147068.72;;;18.40;69.50
47530;BME280;33272;51.922;7.730;2023-05-19T06:50:24;147004.97;;;18.14;68.05
47530;BME280;33272;51.922;7.730;2023-05-19T06:52:51;147048.34;;;18.32;68.49
47530;BME280;33272;51.922;7.730;2023-05-19T06:55:20;147063.59;;;18.38;68.09
47530;BME280;33272;51.922;7.730;2023-05-19T06:57:48;147038.09;;;18.27;68.22
47530;BME280;33272;51.922;7.730;2023-05-19T07:00:16;146997.31;;;18.11;67.92
47530;BME280;33272;51.922;7.730;2023-05-19T07:02:43;146969.22;;;18.00;67.97
47530;BME280;33272;51.922;7.730;2023-05-19T07:05:10;146939.94;;;17.88;67.70
47530;BME280;33272;51.922;7.730;2023-05-19T07:07:37;146906.75;;;17.75;67.55
47530;BME280;33272;51.922;7.730;2023-05-19T07:10:05;146892.72;;;17.69;67.26
47530;BME280;33272;51.922;7.730;2023-05-19T07:12:34;146887.63;;;17.67;67.20
47530;BME280;33272;51.922;7.730;2023-05-19T07:15:01;146853.22;;;17.53;67.55
47530;BME280;33272;51.922;7.730;2023-05-19T07:17:28;146823.88;;;17.42;67.45
47530;BME280;33272;51.922;7.730;2023-05-19T07:19:55;146795.84;;;17.30;67.59
47530;BME280;33272;51.922;7.730;2023-05-19T07:22:22;146785.66;;;17.26;67.42
47530;BME280;33272;51.922;7.730;2023-05-19T07:24:49;146776.75;;;17.23;67.27
47530;BME280;33272;51.922;7.730;2023-05-19T07:27:16;146779.28;;;17.24;67.27
47530;BME280;33272;51.922;7.730;2023-05-19T07:29:45;146799.69;;;17.32;66.55
47530;BME280;33272;51.922;7.730;2023-05-19T07:32:11;146826.44;;;17.43;66.61
47530;BME280;33272;51.922;7.730;2023-05-19T07:34:39;146841.72;;;17.49;66.45
47530;BME280;33272;51.922;7.730;2023-05-19T07:37:06;146836.66;;;17.47;66.38
47530;BME280;33272;51.922;7.730;2023-05-19T07:39:34;146836.66;;;17.47;65.99
47530;BME280;33272;51.922;7.730;2023-05-19T07:42:02;146830.28;;;17.44;65.38
47530;BME280;33272;51.922;7.730;2023-05-19T07:44:29;146820.03;;;17.40;64.71
47530;BME280;33272;51.922;7.730;2023-05-19T07:46:58;146831.53;;;17.45;65.41
47530;BME280;33272;51.922;7.730;2023-05-19T07:49:25;146817.50;;;17.39;64.53
47530;BME280;33272;51.922;7.730;2023-05-19T07:51:52;146826.44;;;17.43;64.74
47530;BME280;33272;51.922;7.730;2023-05-19T07:54:19;146859.59;;;17.56;64.54
47530;BME280;33272;51.922;7.730;2023-05-19T07:56:46;146867.19;;;17.59;64.57
47530;BME280;33272;51.922;7.730;2023-05-19T07:59:14;146890.16;;;17.68;64.17
47530;BME280;33272;51.922;7.730;2023-05-19T08:01:41;146883.81;;;17.66;63.23
47530;BME280;33272;51.922;7.730;2023-05-19T08:04:09;146896.53;;;17.71;63.55
47530;BME280;33272;51.922;7.730;2023-05-19T08:06:37;146909.28;;;17.76;63.23
47530;BME280;33272;51.922;7.730;2023-05-19T08:09:04;146906.75;;;17.75;62.74
47530;BME280;33272;51.922;7.730;2023-05-19T08:11:31;146913.16;;;17.77;62.51
47530;BME280;33272;51.922;7.730;2023-05-19T08:13:58;146914.41;;;17.78;61.79
47530;BME280;33272;51.922;7.730;2023-05-19T08:16:25;146913.16;;;17.77;61.81
47530;BME280;33272;51.922;7.730;2023-05-19T08:18:52;146941.22;;;17.89;62.04
47530;BME280;33272;51.922;7.730;2023-05-19T08:21:21;146974.34;;;18.02;61.74
47530;BME280;33272;51.922;7.730;2023-05-19T08:23:48;147001.16;;;18.13;60.89
47530;BME280;33272;51.922;7.730;2023-05-19T08:26:15;147038.09;;;18.27;60.85
47530;BME280;33272;51.922;7.730;2023-05-19T08:28:42;147063.59;;;18.38;59.89
47530;BME280;33272;51.922;7.730;2023-05-19T08:31:09;147044.50;;;18.30;58.77
47530;BME280;33272;51.922;7.730;2023-05-19T08:33:35;147019.00;;;18.20;58.53
47530;BME280;33272;51.922;7.730;2023-05-19T08:36:03;147027.91;;;18.23;59.42
47530;BME280;33272;51.922;7.730;2023-05-19T08:38:32;147081.50;;;18.45;58.97
47530;BME280;33272;51.922;7.730;2023-05-19T08:40:59;147089.13;;;18.48;58.56
47530;BME280;33272;51.922;7.730;2023-05-19T08:43:27;147080.22;;;18.44;57.80
47530;BME280;33272;51.922;7.730;2023-05-19T08:45:54;147077.63;;;18.43;57.55
47530;BME280;33272;51.922;7.730;2023-05-19T08:48:21;147061.06;;;18.37;56.66
47530;BME280;33272;51.922;7.730;2023-05-19T08:50:56;147077.63;;;18.43;55.88
47530;BME280;33272;51.922;7.730;2023-05-19T08:53:28;147119.75;;;18.60;55.91
47530;BME280;33272;51.922;7.730;2023-05-19T08:56:05;147113.38;;;18.58;52.38
47530;BME280;33272;51.922;7.730;2023-05-19T08:58:37;147109.53;;;18.56;55.05
47530;BME280;33272;51.922;7.730;2023-05-19T09:01:06;147108.25;;;18.56;54.69
47530;BME280;33272;51.922;7.730;2023-05-19T09:03:34;147094.22;;;18.50;54.76
47530;BME280;33272;51.922;7.730;2023-05-19T09:06:05;147092.94;;;18.49;54.63
47530;BME280;33272;51.922;7.730;2023-05-19T09:08:33;147100.59;;;18.52;54.48
47530;BME280;33272;51.922;7.730;2023-05-19T09:11:02;147096.78;;;18.51;52.89
47530;BME280;33272;51.922;7.730;2023-05-19T09:13:29;147122.28;;;18.61;54.58
47530;BME280;33272;51.922;7.730;2023-05-19T09:15:57;147146.53;;;18.71;53.46
47530;BME280;33272;51.922;7.730;2023-05-19T09:18:24;147150.38;;;18.72;53.75
47530;BME280;33272;51.922;7.730;2023-05-19T09:20:56;147167.00;;;18.79;53.83
47530;BME280;33272;51.922;7.730;2023-05-19T09:23:27;147216.75;;;18.99;53.67
47530;BME280;33272;51.922;7.730;2023-05-19T09:25:55;147289.47;;;19.28;53.50
47530;BME280;33272;51.922;7.730;2023-05-19T09:28:25;147323.97;;;19.42;52.46
47530;BME280;33272;51.922;7.730;2023-05-19T09:31:02;147313.72;;;19.38;51.93
47530;BME280;33272;51.922;7.730;2023-05-19T09:33:32;147297.13;;;19.31;51.53
47530;BME280;33272;51.922;7.730;2023-05-19T09:35:59;147323.97;;;19.42;52.19
47530;BME280;33272;51.922;7.730;2023-05-19T09:38:26;147357.16;;;19.55;52.41
47530;BME280;33272;51.922;7.730;2023-05-19T09:40:56;147381.44;;;19.65;50.45
47530;BME280;33272;51.922;7.730;2023-05-19T09:43:26;147406.97;;;19.75;49.67
47530;BME280;33272;51.922;7.730;2023-05-19T09:45:58;147446.53;;;19.91;50.43
47530;BME280;33272;51.922;7.730;2023-05-19T09:48:25;147468.25;;;20.00;50.44
47530;BME280;33272;51.922;7.730;2023-05-19T09:50:53;147451.66;;;19.93;49.85
47530;BME280;33272;51.922;7.730;2023-05-19T09:53:22;147450.41;;;19.93;49.47
47530;BME280;33272;51.922;7.730;2023-05-19T09:55:53;147461.88;;;19.97;49.69
47530;BME280;33272;51.922;7.730;2023-05-19T09:58:21;147440.16;;;19.88;49.31
47530;BME280;33272;51.922;7.730;2023-05-19T10:00:50;147432.50;;;19.85;49.30
47530;BME280;33272;51.922;7.730;2023-05-19T10:03:19;147428.69;;;19.84;49.12
47530;BME280;33272;51.922;7.730;2023-05-19T10:05:48;147426.09;;;19.83;48.78
47530;BME280;33272;51.922;7.730;2023-05-19T10:08:16;147422.28;;;19.81;48.91
47530;BME280;33272;51.922;7.730;2023-05-19T10:10:45;147403.16;;;19.74;49.06
47530;BME280;33272;51.922;7.730;2023-05-19T10:13:12;147410.81;;;19.77;48.87
47530;BME280;33272;51.922;7.730;2023-05-19T10:15:40;147447.81;;;19.91;49.22
47530;BME280;33272;51.922;7.730;2023-05-19T10:18:10;147465.72;;;19.99;48.72
47530;BME280;33272;51.922;7.730;2023-05-19T10:20:39;147511.66;;;20.17;48.33
47530;BME280;33272;51.922;7.730;2023-05-19T10:23:07;147556.38;;;20.35;48.30
47530;BME280;33272;51.922;7.730;2023-05-19T10:25:34;147551.25;;;20.33;46.84
47530;BME280;33272;51.922;7.730;2023-05-19T10:28:07;147535.91;;;20.27;46.61
47530;BME280;33272;51.922;7.730;2023-05-19T10:30:39;147547.44;;;20.31;46.97
47530;BME280;33272;51.922;7.730;2023-05-19T10:33:13;147598.56;;;20.52;47.01
47530;BME280;33272;51.922;7.730;2023-05-19T10:36:01;147622.81;;;20.62;46.71
47530;BME280;33272;51.922;7.730;2023-05-19T10:38:40;147566.56;;;20.39;46.45
47530;BME280;33272;51.922;7.730;2023-05-19T10:41:15;147529.56;;;20.24;46.77
47530;BME280;33272;51.922;7.730;2023-05-19T10:43:54;147491.25;;;20.09;46.01
47530;BME280;33272;51.922;7.730;2023-05-19T10:46:25;147504.00;;;20.14;46.53
47530;BME280;33272;51.922;7.730;2023-05-19T10:48:54;147523.19;;;20.22;46.76
47530;BME280;33272;51.922;7.730;2023-05-19T10:51:29;147588.31;;;20.48;46.78
47530;BME280;33272;51.922;7.730;2023-05-19T10:53:56;147629.22;;;20.64;46.63
47530;BME280;33272;51.922;7.730;2023-05-19T10:56:29;147575.50;;;20.43;45.53
47530;BME280;33272;51.922;7.730;2023-05-19T10:58:59;147579.38;;;20.44;45.83
47530;BME280;33272;51.922;7.730;2023-05-19T11:01:30;147583.19;;;20.46;45.95
47530;BME280;33272;51.922;7.730;2023-05-19T11:04:05;147538.50;;;20.28;45.33
47530;BME280;33272;51.922;7.730;2023-05-19T11:06:33;147521.91;;;20.21;45.97
47530;BME280;33272;51.922;7.730;2023-05-19T11:09:11;147526.97;;;20.23;45.90
47530;BME280;33272;51.922;7.730;2023-05-19T11:11:46;147548.72;;;20.32;45.96
47530;BME280;33272;51.922;7.730;2023-05-19T11:14:14;147560.22;;;20.36;45.56
47530;BME280;33272;51.922;7.730;2023-05-19T11:16:47;147561.50;;;20.37;44.24
47530;BME280;33272;51.922;7.730;2023-05-19T11:19:27;147548.72;;;20.32;42.72
47530;BME280;33272;51.922;7.730;2023-05-19T11:21:56;147620.28;;;20.60;45.19
47530;BME280;33272;51.922;7.730;2023-05-19T11:24:37;147702.09;;;20.93;44.24
47530;BME280;33272;51.922;7.730;2023-05-19T11:27:23;147799.19;;;21.32;43.91
47530;BME280;33272;51.922;7.730;2023-05-19T11:29:51;147897.66;;;21.71;44.95
47530;BME280;33272;51.922;7.730;2023-05-19T11:32:20;147973.13;;;22.02;44.53
47530;BME280;33272;51.922;7.730;2023-05-19T11:34:48;147989.75;;;22.08;43.87
47530;BME280;33272;51.922;7.730;2023-05-19T11:37:16;147988.47;;;22.08;42.98
47530;BME280;33272;51.922;7.730;2023-05-19T11:39:45;148021.75;;;22.21;43.77
47530;BME280;33272;51.922;7.730;2023-05-19T11:42:13;148043.50;;;22.30;43.50
47530;BME280;33272;51.922;7.730;2023-05-19T11:44:40;148042.25;;;22.29;43.36
47530;BME280;33272;51.922;7.730;2023-05-19T11:47:07;148040.94;;;22.29;43.20
47530;BME280;33272;51.922;7.730;2023-05-19T11:49:34;148028.16;;;22.24;42.43
47530;BME280;33272;51.922;7.730;2023-05-19T11:52:04;148030.72;;;22.25;41.92
47530;BME280;33272;51.922;7.730;2023-05-19T11:54:32;148011.53;;;22.17;42.82
47530;BME280;33272;51.922;7.730;2023-05-19T11:57:02;147993.56;;;22.10;42.65
47530;BME280;33272;51.922;7.730;2023-05-19T11:59:30;147884.91;;;21.66;43.47
47530;BME280;33272;51.922;7.730;2023-05-19T12:02:01;147827.34;;;21.43;43.74
47530;BME280;33272;51.922;7.730;2023-05-19T12:04:29;147771.06;;;21.21;43.99
47530;BME280;33272;51.922;7.730;2023-05-19T12:06:57;147717.38;;;20.99;44.30
47530;BME280;33272;51.922;7.730;2023-05-19T12:09:27;147689.28;;;20.88;45.00
47530;BME280;33272;51.922;7.730;2023-05-19T12:11:54;147690.56;;;20.89;44.48
47530;BME280;33272;51.922;7.730;2023-05-19T12:14:21;147668.81;;;20.80;44.79
47530;BME280;33272;51.922;7.730;2023-05-19T12:16:49;147682.88;;;20.86;44.80
47530;BME280;33272;51.922;7.730;2023-05-19T12:19:16;147712.28;;;20.97;44.58
47530;BME280;33272;51.922;7.730;2023-05-19T12:21:43;147717.38;;;20.99;44.48
47530;BME280;33272;51.922;7.730;2023-05-19T12:24:10;147691.81;;;20.89;43.96
47530;BME280;33272;51.922;7.730;2023-05-19T12:26:40;147693.09;;;20.90;43.41
47530;BME280;33272;51.922;7.730;2023-05-19T12:29:07;147749.31;;;21.12;43.55
47530;BME280;33272;51.922;7.730;2023-05-19T12:31:34;147817.13;;;21.39;43.67
47530;BME280;33272;51.922;7.730;2023-05-19T12:34:01;147909.19;;;21.76;43.75
47530;BME280;33272;51.922;7.730;2023-05-19T12:36:28;147978.25;;;22.04;43.29
47530;BME280;33272;51.922;7.730;2023-05-19T12:38:56;147996.16;;;22.11;43.44
47530;BME280;33272;51.922;7.730;2023-05-19T12:41:24;147996.16;;;22.11;43.11
47530;BME280;33272;51.922;7.730;2023-05-19T12:43:54;147982.06;;;22.05;43.27
47530;BME280;33272;51.922;7.730;2023-05-19T12:46:21;147951.38;;;21.93;43.91
47530;BME280;33272;51.922;7.730;2023-05-19T12:48:48;147902.78;;;21.73;44.04
47530;BME280;33272;51.922;7.730;2023-05-19T12:51:16;147845.28;;;21.50;44.38
47530;BME280;33272;51.922;7.730;2023-05-19T12:53:44;147814.59;;;21.38;44.15
47530;BME280;33272;51.922;7.730;2023-05-19T12:56:12;147792.78;;;21.29;44.39
47530;BME280;33272;51.922;7.730;2023-05-19T12:58:40;147824.81;;;21.42;44.18